YPQ weather

Peterborough Airport
Peterborough, Ontario, Canada

Public forecast

Using degrees Celsius for public forecast. Weather courtesy of forecast.io.

METAR (pilot weather report)

Retrieved 2019/04/21 00:33 UTC (7 minutes ago):

CYPQ 210033Z AUTO 03005KT 9SM SCT006 BKN026 BKN085 OVC120 07/07 A2968 RMK SLP058

TAF (pilot weather forecast)

Retrieved 2019/04/20 20:00 UTC (5 hours ago):

TAF CYPQ 201940Z 2020/2102 05010G20KT P6SM OVC012 TEMPO 2020/2021 P6SM -RA OVC007 FM202100 05010G20KT 6SM -SHRA BR OVC010 TEMPO 2021/2023 3SM -SHRA VCTS BR OVC007CB FM202300 VRB03KT 21/2SM -DZ -SHRA BR OVC006 PROB30 2101/2102 1/2SM FG VV002 RMK FCST BASED ON AUTO OBS. NXT FCST WILL BE ISSUED AT 210945Z